Time;durP1;ratioP1;P1;durP2;ratioP2;P2;SDS_P1;SDS_P2;PMS_P1;PMS_P2;Temp;Humidity;BMP_temperature;BMP_pressure;BME280_temperature;BME280_humidity;BME280_pressure;Samples;Min_cycle;Max_cycle;Signal;HPM_P1;HPM_P2
2021/01/23 00:01:39;;;;;;;5.82;3.20;;;;;;;10.07;67.00;98971.09;4859564;29;20534;-86
2021/01/23 00:04:04;;;;;;;5.88;3.72;;;;;;;10.08;67.29;98968.19;4859898;29;20490;-86
2021/01/23 00:06:30;;;;;;;8.38;4.47;;;;;;;10.10;67.16;98959.88;4860079;29;20017;-88
2021/01/23 00:08:56;;;;;;;5.40;4.10;;;;;;;10.13;66.81;98964.69;4860655;29;20024;-86
2021/01/23 00:11:52;;;;;;;9.55;4.35;;;;;;;10.14;66.34;98954.78;4844735;29;20164;-83
2021/01/23 00:14:21;;;;;;;11.25;5.25;;;;;;;10.13;66.52;98953.19;4859512;29;20045;-87
2021/01/23 00:16:47;;;;;;;9.10;4.43;;;;;;;10.14;66.30;98957.47;4860445;29;20124;-79
2021/01/23 00:19:12;;;;;;;8.65;4.43;;;;;;;10.11;66.21;98950.81;4860024;29;20112;-82
2021/01/23 00:21:37;;;;;;;10.77;5.30;;;;;;;10.10;65.88;98952.66;4860227;29;20076;-81
2021/01/23 00:24:04;;;;;;;7.90;4.55;;;;;;;10.08;66.09;98951.34;4860608;29;20535;-79
2021/01/23 00:26:30;;;;;;;8.70;3.55;;;;;;;10.07;65.67;98953.22;4859853;29;20021;-80
2021/01/23 00:28:55;;;;;;;7.57;4.63;;;;;;;10.07;65.78;98957.75;4860525;29;20033;-81
2021/01/23 00:31:21;;;;;;;10.27;5.43;;;;;;;10.05;65.47;98958.03;4859566;29;20120;-81
2021/01/23 00:33:46;;;;;;;7.82;3.70;;;;;;;10.03;65.00;98954.03;4872331;29;20490;-79
2021/01/23 00:36:11;;;;;;;6.93;3.80;;;;;;;10.02;64.57;98965.78;4860248;29;20029;-78
2021/01/23 00:38:37;;;;;;;6.82;4.18;;;;;;;10.01;64.75;98951.66;4860173;29;20036;-79
2021/01/23 00:41:02;;;;;;;7.50;4.57;;;;;;;10.00;64.65;98949.25;4860299;29;20037;-79
2021/01/23 00:43:28;;;;;;;10.57;5.32;;;;;;;10.00;64.52;98946.59;4859590;29;20089;-79
2021/01/23 00:45:53;;;;;;;7.55;4.60;;;;;;;9.99;64.03;98937.75;4856811;29;20038;-77
2021/01/23 00:48:18;;;;;;;12.07;5.68;;;;;;;9.97;64.12;98937.22;4874873;29;20161;-77
2021/01/23 00:50:44;;;;;;;9.35;5.22;;;;;;;10.00;63.88;98935.91;4860057;29;20021;-80
2021/01/23 00:53:09;;;;;;;11.18;4.90;;;;;;;10.00;63.83;98939.34;4870960;29;20586;-80
2021/01/23 00:55:35;;;;;;;8.48;4.38;;;;;;;10.01;63.70;98938.28;4860101;29;20471;-81
2021/01/23 00:58:00;;;;;;;6.70;3.42;;;;;;;10.03;63.86;98932.66;4860149;29;20119;-80
2021/01/23 01:00:26;;;;;;;4.03;2.65;;;;;;;10.04;63.93;98928.94;4859908;29;20031;-85
2021/01/23 01:02:51;;;;;;;8.32;3.83;;;;;;;10.05;64.02;98931.31;4859647;29;20195;-86
2021/01/23 01:05:17;;;;;;;4.85;2.75;;;;;;;10.09;63.98;98932.38;4860008;29;20462;-82
2021/01/23 01:07:42;;;;;;;7.65;3.08;;;;;;;10.11;63.58;98929.44;4860127;29;20380;-87
2021/01/23 01:10:09;;;;;;;7.30;3.75;;;;;;;10.14;63.92;98934.19;4858863;29;20025;-85
2021/01/23 01:12:34;;;;;;;4.63;3.25;;;;;;;10.17;63.57;98936.34;4859832;29;20068;-80
2021/01/23 01:15:00;;;;;;;7.85;3.80;;;;;;;10.18;63.55;98935.25;4860291;29;20025;-79
2021/01/23 01:17:25;;;;;;;7.22;4.53;;;;;;;10.17;63.95;98927.53;4862914;29;20422;-79
2021/01/23 01:19:51;;;;;;;6.82;4.50;;;;;;;10.16;64.10;98924.03;4863769;29;20029;-79
2021/01/23 01:22:16;;;;;;;6.93;4.63;;;;;;;10.16;64.18;98928.59;4863063;29;20055;-84
2021/01/23 01:24:42;;;;;;;9.27;4.35;;;;;;;10.14;64.42;98922.72;4860074;29;20431;-80
2021/01/23 01:27:07;;;;;;;8.63;4.38;;;;;;;10.13;64.27;98926.47;4863116;29;20702;-81
2021/01/23 01:29:33;;;;;;;9.95;5.13;;;;;;;10.13;64.54;98927.28;4859733;29;20026;-79
2021/01/23 01:31:58;;;;;;;7.30;4.68;;;;;;;10.12;64.89;98924.88;4854093;29;20096;-78
2021/01/23 01:34:23;;;;;;;9.13;5.90;;;;;;;10.12;65.29;98924.88;4862250;29;20077;-79
2021/01/23 01:36:49;;;;;;;5.40;3.67;;;;;;;10.11;65.42;98924.06;4863160;29;20044;-80
2021/01/23 01:39:15;;;;;;;6.10;3.72;;;;;;;10.14;66.21;98914.72;4862984;29;20029;-79
2021/01/23 01:41:40;;;;;;;3.80;2.90;;;;;;;10.15;65.80;98913.63;4862864;29;20550;-80
2021/01/23 01:44:06;;;;;;;4.07;2.65;;;;;;;10.17;66.01;98895.47;4863516;29;20120;-79
2021/01/23 01:46:33;;;;;;;5.90;3.30;;;;;;;10.18;66.00;98891.69;4862159;29;20036;-80
2021/01/23 01:49:13;;;;;;;6.20;3.85;;;;;;;10.18;66.09;98884.50;4863387;29;20486;-86
2021/01/23 01:51:39;;;;;;;7.03;3.70;;;;;;;10.20;66.11;98884.22;4879626;29;20033;-82
2021/01/23 01:54:04;;;;;;;5.80;3.47;;;;;;;10.20;66.56;98878.84;4862903;29;20032;-79
2021/01/23 01:56:30;;;;;;;6.47;3.50;;;;;;;10.19;66.19;98875.41;4862125;29;20048;-82
2021/01/23 01:58:56;;;;;;;5.18;3.75;;;;;;;10.17;67.31;98872.19;4860258;29;20402;-79
2021/01/23 02:01:22;;;;;;;6.72;3.88;;;;;;;10.20;67.41;98876.97;4862232;29;20032;-79
2021/01/23 02:04:25;;;;;;;6.25;4.03;;;;;;;10.22;67.86;98876.72;4862597;29;20036;-87
2021/01/23 02:07:02;;;;;;;4.60;3.60;;;;;;;10.23;67.98;98871.09;4857916;29;20045;-85
2021/01/23 02:10:04;;;;;;;3.75;3.30;;;;;;;10.24;68.81;98878.03;4862858;29;20040;-84
2021/01/23 02:12:39;;;;;;;4.65;3.47;;;;;;;10.25;69.14;98868.94;4862666;29;20036;-82
2021/01/23 02:15:14;;;;;;;7.30;3.92;;;;;;;10.27;69.45;98868.66;4862526;29;20422;-81
2021/01/23 02:17:47;;;;;;;5.93;2.70;;;;;;;10.29;69.56;98871.03;4860388;29;20033;-79
2021/01/23 02:20:21;;;;;;;6.68;3.30;;;;;;;10.32;69.99;98870.50;4852577;29;20097;-82
2021/01/23 02:23:01;;;;;;;5.97;3.03;;;;;;;10.32;69.87;98868.63;4862360;29;20467;-85
2021/01/23 02:25:27;;;;;;;3.97;3.45;;;;;;;10.34;70.14;98860.31;4861874;29;20029;-88
2021/01/23 02:28:26;;;;;;;4.35;3.33;;;;;;;10.35;69.95;98859.25;4862091;29;20176;-88
2021/01/23 02:31:11;;;;;;;6.38;3.67;;;;;;;10.36;70.21;98858.16;4860960;29;20439;-88
2021/01/23 02:33:38;;;;;;;5.38;3.55;;;;;;;10.36;70.05;98856.34;4861981;29;20088;-88
2021/01/23 02:36:05;;;;;;;3.33;3.03;;;;;;;10.37;70.40;98855.25;4861747;29;20040;-88
2021/01/23 02:38:34;;;;;;;3.72;3.15;;;;;;;10.37;70.41;98857.91;4861761;29;20482;-89
2021/01/23 02:41:02;;;;;;;3.40;2.58;;;;;;;10.37;70.60;98863.25;4862367;29;20120;-82
2021/01/23 02:43:28;;;;;;;5.82;3.92;;;;;;;10.38;70.59;98870.19;4861915;29;20104;-81
2021/01/23 02:45:53;;;;;;;3.70;2.90;;;;;;;10.38;70.96;98864.06;4861513;29;20479;-81
2021/01/23 02:48:19;;;;;;;4.18;3.05;;;;;;;10.40;70.49;98869.94;4861924;29;20037;-83
2021/01/23 02:50:46;;;;;;;5.82;2.95;;;;;;;10.39;70.83;98855.75;4861929;29;20115;-83
2021/01/23 02:53:27;;;;;;;6.20;3.50;;;;;;;10.41;70.53;98858.16;4862252;29;20028;-86
2021/01/23 02:55:57;;;;;;;4.10;2.78;;;;;;;10.43;70.59;98858.69;4876270;29;20033;-84
2021/01/23 02:58:26;;;;;;;7.30;3.30;;;;;;;10.44;70.84;98851.47;4861198;29;20490;-83
2021/01/23 03:00:52;;;;;;;4.72;3.72;;;;;;;10.45;70.31;98859.22;4860311;29;20044;-86
2021/01/23 03:03:20;;;;;;;6.75;3.33;;;;;;;10.45;70.89;98853.03;4861450;29;20646;-86
2021/01/23 03:05:48;;;;;;;7.37;3.77;;;;;;;10.45;70.49;98847.69;4861602;29;20061;-84
2021/01/23 03:08:14;;;;;;;4.55;2.88;;;;;;;10.46;70.22;98854.66;4860855;29;20280;-86
2021/01/23 03:10:45;;;;;;;4.40;2.58;;;;;;;10.46;70.42;98846.63;4861370;29;20554;-80
2021/01/23 03:13:12;;;;;;;4.50;3.17;;;;;;;10.47;70.46;98853.56;4861563;29;20040;-81
2021/01/23 03:15:37;;;;;;;9.15;4.50;;;;;;;10.47;69.83;98854.34;4860753;29;20048;-80
2021/01/23 03:18:04;;;;;;;5.88;3.30;;;;;;;10.47;69.90;98850.91;4861412;29;20394;-84
2021/01/23 03:20:30;;;;;;;6.43;3.95;;;;;;;10.47;69.98;98854.34;4853312;29;20128;-83
2021/01/23 03:22:59;;;;;;;5.13;3.05;;;;;;;10.46;69.91;98850.13;4843220;29;20068;-85
2021/01/23 03:25:26;;;;;;;6.53;3.80;;;;;;;10.46;70.30;98850.13;4850747;29;20500;-79
2021/01/23 03:27:52;;;;;;;8.85;3.35;;;;;;;10.46;69.75;98850.13;4861061;29;20067;-79
2021/01/23 03:30:19;;;;;;;8.70;3.67;;;;;;;10.46;69.43;98847.44;4861604;29;20074;-80
2021/01/23 03:32:45;;;;;;;4.72;3.03;;;;;;;10.46;69.83;98842.09;4860977;29;20037;-81
2021/01/23 03:35:11;;;;;;;3.50;3.20;;;;;;;10.47;69.56;98832.97;4861147;29;20064;-81
2021/01/23 03:37:36;;;;;;;3.05;2.55;;;;;;;10.49;69.51;98835.38;4860741;29;20097;-83
2021/01/23 03:40:04;;;;;;;3.10;2.80;;;;;;;10.49;69.12;98841.53;4861030;29;20056;-79
2021/01/23 03:42:29;;;;;;;4.45;2.88;;;;;;;10.50;69.34;98839.66;4860502;29;20061;-78
2021/01/23 03:44:55;;;;;;;3.67;2.72;;;;;;;10.50;68.96;98829.75;4860850;29;20486;-87
2021/01/23 03:47:20;;;;;;;4.63;2.78;;;;;;;10.50;69.44;98820.94;4860907;29;20032;-80
2021/01/23 03:49:46;;;;;;;3.55;3.03;;;;;;;10.52;69.12;98821.44;4857514;29;20490;-80
2021/01/23 03:52:12;;;;;;;5.53;3.25;;;;;;;10.51;68.90;98814.50;4843055;29;20177;-82
2021/01/23 03:54:42;;;;;;;6.97;4.00;;;;;;;10.52;68.81;98822.25;4860823;29;20124;-85
2021/01/23 03:57:08;;;;;;;5.05;3.25;;;;;;;10.51;68.90;98825.19;4860821;29;20036;-81
2021/01/23 03:59:34;;;;;;;5.53;3.67;;;;;;;10.51;68.52;98819.84;4860538;29;20033;-81
2021/01/23 04:01:59;;;;;;;3.58;3.25;;;;;;;10.49;68.42;98824.69;4859230;29;20052;-82
2021/01/23 04:04:25;;;;;;;4.82;2.80;;;;;;;10.48;68.27;98825.75;4861028;29;20168;-84
2021/01/23 04:06:50;;;;;;;7.72;4.35;;;;;;;10.44;68.78;98822.84;4860069;29;20025;-83
2021/01/23 04:09:16;;;;;;;5.90;3.90;;;;;;;10.42;68.56;98816.97;4861878;29;20044;-80
2021/01/23 04:11:41;;;;;;;11.07;5.38;;;;;;;10.38;68.69;98807.94;4860566;29;20664;-78
2021/01/23 04:14:07;;;;;;;13.23;5.90;;;;;;;10.35;68.99;98814.63;4860942;29;20051;-82
2021/01/23 04:16:32;;;;;;;11.57;5.15;;;;;;;10.33;68.91;98821.31;4860229;29;20435;-80
2021/01/23 04:18:58;;;;;;;8.30;4.70;;;;;;;10.30;69.16;98814.66;4860199;29;20394;-81
2021/01/23 04:21:23;;;;;;;7.53;5.32;;;;;;;10.29;69.08;98817.59;4859756;29;20053;-83
2021/01/23 04:23:49;;;;;;;9.13;4.65;;;;;;;10.28;68.80;98810.66;4860481;29;20129;-83
2021/01/23 04:26:14;;;;;;;9.05;4.30;;;;;;;10.27;69.30;98820.56;4860454;29;20029;-78
2021/01/23 04:28:40;;;;;;;4.72;3.30;;;;;;;10.28;68.87;98821.34;4860513;29;20359;-78
2021/01/23 04:31:05;;;;;;;5.20;3.55;;;;;;;10.28;69.09;98816.00;4860584;29;20036;-81
2021/01/23 04:33:32;;;;;;;5.82;4.15;;;;;;;10.29;68.91;98814.91;4860081;29;20040;-80
2021/01/23 04:35:57;;;;;;;3.47;2.33;;;;;;;10.28;69.25;98816.81;4859809;29;20120;-82
2021/01/23 04:38:23;;;;;;;4.03;2.60;;;;;;;10.28;68.90;98802.63;4859972;29;20084;-82
2021/01/23 04:40:48;;;;;;;6.45;3.75;;;;;;;10.30;68.98;98817.34;4860112;29;20040;-77
2021/01/23 04:43:14;;;;;;;6.45;2.80;;;;;;;10.32;68.95;98812.47;4860206;29;20040;-78
2021/01/23 04:45:39;;;;;;;4.05;2.45;;;;;;;10.32;69.27;98815.16;4860066;29;20017;-78
2021/01/23 04:48:06;;;;;;;5.47;2.97;;;;;;;10.33;69.08;98818.66;4860332;29;20033;-83
2021/01/23 04:50:31;;;;;;;5.55;2.97;;;;;;;10.34;69.32;98820.22;4862536;29;20043;-83
2021/01/23 04:52:56;;;;;;;5.18;3.03;;;;;;;10.35;69.30;98817.28;4863988;29;20032;-82
2021/01/23 04:55:22;;;;;;;5.43;3.40;;;;;;;10.35;69.31;98809.25;4863377;29;20041;-82
2021/01/23 04:57:47;;;;;;;6.10;3.20;;;;;;;10.36;69.11;98812.72;4863046;29;20029;-80
2021/01/23 05:00:13;;;;;;;5.30;2.47;;;;;;;10.36;69.33;98810.91;4863470;29;20021;-79
2021/01/23 05:02:39;;;;;;;5.70;2.88;;;;;;;10.35;69.43;98798.56;4855243;29;20055;-83
2021/01/23 05:05:05;;;;;;;8.30;2.67;;;;;;;10.36;69.54;98799.34;4864258;29;20498;-83
2021/01/23 05:07:36;;;;;;;4.90;3.42;;;;;;;10.35;69.19;98800.44;4863273;29;20021;-82
2021/01/23 05:10:29;;;;;;;5.80;3.47;;;;;;;10.34;69.38;98793.50;4863492;29;20025;-82
2021/01/23 05:12:56;;;;;;;3.72;3.35;;;;;;;10.33;69.75;98789.25;4862894;29;20439;-82
2021/01/23 05:15:23;;;;;;;5.45;3.42;;;;;;;10.32;69.40;98799.13;4848237;29;20068;-78
2021/01/23 05:18:00;;;;;;;3.53;2.92;;;;;;;10.30;69.61;98798.63;4863172;29;20044;-78
2021/01/23 05:20:36;;;;;;;4.97;3.08;;;;;;;10.31;69.38;98783.38;4864260;29;20085;-77
2021/01/23 05:23:05;;;;;;;4.53;2.92;;;;;;;10.29;69.79;98781.00;4863519;29;20132;-78
2021/01/23 05:25:32;;;;;;;7.75;3.60;;;;;;;10.29;69.66;98781.00;4863357;29;20040;-77
2021/01/23 05:27:59;;;;;;;7.45;3.90;;;;;;;10.29;69.91;98786.34;4863210;29;20109;-80
2021/01/23 05:30:37;;;;;;;6.97;4.10;;;;;;;10.28;69.95;98784.72;4863255;29;20025;-78
2021/01/23 05:33:14;;;;;;;8.98;3.38;;;;;;;10.29;69.96;98793.53;4862543;29;20379;-81
2021/01/23 05:35:40;;;;;;;3.78;3.42;;;;;;;10.27;69.94;98793.81;4863444;29;20033;-79
2021/01/23 05:38:21;;;;;;;3.72;3.35;;;;;;;10.29;70.08;98788.19;4862836;29;20478;-79
2021/01/23 05:40:49;;;;;;;5.57;3.08;;;;;;;10.27;70.17;98780.47;4861399;29;20500;-80
2021/01/23 05:43:28;;;;;;;3.35;2.80;;;;;;;10.29;70.34;98789.00;4863077;29;20040;-80
2021/01/23 05:45:54;;;;;;;5.32;3.50;;;;;;;10.30;70.62;98782.59;4863121;29;20033;-79
2021/01/23 05:48:19;;;;;;;6.70;3.38;;;;;;;10.34;70.47;98782.78;4862732;29;20079;-80
2021/01/23 05:50:44;;;;;;;5.20;2.50;;;;;;;10.37;70.44;98783.06;4850182;29;20017;-78
2021/01/23 05:53:10;;;;;;;4.28;2.72;;;;;;;10.41;70.13;98781.44;4862043;29;20018;-78
2021/01/23 05:55:35;;;;;;;9.65;3.72;;;;;;;10.46;70.33;98782.47;4845719;29;20426;-79
2021/01/23 05:58:01;;;;;;;6.32;3.42;;;;;;;10.51;70.23;98779.72;4850033;29;20049;-79
2021/01/23 06:00:27;;;;;;;7.50;3.88;;;;;;;10.57;70.05;98779.41;4847223;29;20025;-78
2021/01/23 06:02:53;;;;;;;6.15;3.67;;;;;;;10.62;69.63;98772.41;4850071;29;20029;-78
2021/01/23 06:05:19;;;;;;;5.03;3.30;;;;;;;10.67;69.57;98769.72;4859347;29;20088;-79
2021/01/23 06:07:46;;;;;;;7.25;4.05;;;;;;;10.72;69.90;98772.31;4845659;29;20030;-81
2021/01/23 06:10:23;;;;;;;4.38;3.15;;;;;;;10.78;70.09;98768.53;4855085;29;20036;-82
2021/01/23 06:12:53;;;;;;;7.80;3.72;;;;;;;10.84;69.93;98763.88;4849806;29;20483;-80
2021/01/23 06:15:31;;;;;;;6.65;3.45;;;;;;;10.93;70.08;98758.72;4862033;29;20490;-85
2021/01/23 06:17:57;;;;;;;6.82;3.88;;;;;;;10.99;69.85;98754.91;4860218;29;20033;-81
2021/01/23 06:20:40;;;;;;;10.15;4.78;;;;;;;11.08;69.68;98761.22;4862021;29;20029;-79
2021/01/23 06:23:10;;;;;;;11.32;5.40;;;;;;;11.10;69.60;98742.22;4848673;29;20056;-80
2021/01/23 06:25:51;;;;;;;10.50;5.90;;;;;;;11.11;68.65;98728.53;4842907;29;20049;-84
2021/01/23 06:28:37;;;;;;;10.63;4.40;;;;;;;11.17;69.12;98732.75;4859411;29;20064;-85
2021/01/23 06:31:36;;;;;;;6.70;4.47;;;;;;;11.17;68.91;98719.38;4858641;29;20100;-79
2021/01/23 06:34:22;;;;;;;7.43;4.57;;;;;;;11.21;68.37;98712.34;4835840;29;20041;-87
2021/01/23 06:36:48;;;;;;;10.52;4.88;;;;;;;11.26;68.78;98710.69;4861381;29;20025;-85
2021/01/23 06:39:13;;;;;;;6.93;4.93;;;;;;;11.28;68.73;98709.31;4861652;29;20033;-83
2021/01/23 06:41:39;;;;;;;6.43;4.13;;;;;;;11.35;68.83;98715.13;4861621;29;20549;-82
2021/01/23 06:44:15;;;;;;;8.05;4.63;;;;;;;11.40;68.16;98716.13;4861607;29;20060;-79
2021/01/23 06:46:43;;;;;;;4.68;3.45;;;;;;;11.48;67.92;98715.47;4861186;29;20064;-81
2021/01/23 06:49:10;;;;;;;6.53;4.25;;;;;;;11.54;67.77;98719.66;4860628;29;20044;-79
2021/01/23 06:51:39;;;;;;;8.90;4.72;;;;;;;11.61;67.38;98717.41;4876140;29;20025;-85
2021/01/23 06:54:17;;;;;;;9.98;4.85;;;;;;;11.65;66.61;98715.75;4861306;29;20386;-78
2021/01/23 06:56:44;;;;;;;9.07;5.07;;;;;;;11.70;66.95;98712.19;4860732;29;20125;-77
2021/01/23 06:59:39;;;;;;;6.88;4.43;;;;;;;11.76;66.37;98734.34;4861275;29;20037;-77
2021/01/23 07:02:10;;;;;;;7.78;5.07;;;;;;;11.77;66.35;98722.56;4848431;29;20123;-82
2021/01/23 07:04:43;;;;;;;8.45;5.45;;;;;;;11.79;66.01;98731.06;4860588;29;20482;-88
2021/01/23 07:07:08;;;;;;;6.18;4.03;;;;;;;11.80;66.33;98741.53;4860840;29;20040;-77
2021/01/23 07:10:04;;;;;;;8.77;3.83;;;;;;;11.84;65.75;98741.75;4860922;29;20439;-79
2021/01/23 07:12:33;;;;;;;6.25;3.58;;;;;;;11.83;65.29;98729.44;4846148;29;20037;-82
2021/01/23 07:14:58;;;;;;;7.00;4.32;;;;;;;11.84;65.43;98734.47;4860615;29;20440;-79
2021/01/23 07:17:24;;;;;;;9.52;5.05;;;;;;;11.86;64.90;98739.53;4860622;29;20092;-81
2021/01/23 07:19:49;;;;;;;38.05;15.52;;;;;;;11.89;64.62;98733.63;4860627;29;20028;-84
2021/01/23 07:22:14;;;;;;;7.93;4.85;;;;;;;11.92;64.21;98741.06;4860249;29;20045;-83
2021/01/23 07:24:40;;;;;;;5.07;3.80;;;;;;;11.95;64.06;98745.84;4860014;29;20541;-82
2021/01/23 07:27:06;;;;;;;7.15;4.57;;;;;;;11.99;64.53;98738.84;4860772;29;20065;-82
2021/01/23 07:29:32;;;;;;;5.65;4.50;;;;;;;12.02;64.09;98737.44;4861032;29;20035;-81
2021/01/23 07:31:57;;;;;;;7.00;3.92;;;;;;;12.04;64.30;98746.00;4859752;29;20029;-80
2021/01/23 07:34:22;;;;;;;6.95;3.80;;;;;;;12.08;64.21;98738.94;4859251;29;20036;-83
2021/01/23 07:36:48;;;;;;;7.10;3.83;;;;;;;12.13;64.16;98727.34;4860267;29;20033;-84
2021/01/23 07:39:19;;;;;;;8.82;4.70;;;;;;;12.14;64.40;98719.00;4861593;29;20036;-85
2021/01/23 07:41:54;;;;;;;6.75;4.57;;;;;;;12.22;64.24;98722.13;4859716;29;20063;-85
2021/01/23 07:44:20;;;;;;;5.40;3.33;;;;;;;12.27;63.60;98738.91;4860560;29;20027;-83
2021/01/23 07:46:47;;;;;;;7.28;3.97;;;;;;;12.28;64.13;98719.06;4860727;29;20059;-83
2021/01/23 07:49:33;;;;;;;5.55;3.97;;;;;;;12.38;63.90;98736.03;4859922;29;20041;-82
2021/01/23 07:52:06;;;;;;;8.07;4.53;;;;;;;12.42;63.94;98718.28;4853655;29;20037;-88
2021/01/23 07:54:32;;;;;;;5.72;3.97;;;;;;;12.47;63.66;98732.41;4860998;29;20448;-83
2021/01/23 07:56:57;;;;;;;6.85;4.30;;;;;;;12.53;63.64;98738.47;4860604;29;20123;-82
2021/01/23 07:59:45;;;;;;;6.05;4.80;;;;;;;12.57;63.29;98738.66;4860567;29;20025;-86
2021/01/23 08:02:11;;;;;;;5.72;4.10;;;;;;;12.61;63.04;98737.78;4860970;29;20040;-84
2021/01/23 08:04:38;;;;;;;5.22;3.70;;;;;;;12.67;62.87;98735.00;4861174;29;20028;-85
2021/01/23 08:07:32;;;;;;;7.03;4.45;;;;;;;12.70;63.07;98729.84;4859803;29;20052;-80
2021/01/23 08:10:05;;;;;;;8.70;4.65;;;;;;;12.76;62.80;98735.91;4857151;29;20463;-82
2021/01/23 08:12:31;;;;;;;9.75;5.13;;;;;;;12.78;62.52;98736.38;4860912;29;20090;-81
2021/01/23 08:14:57;;;;;;;14.52;7.43;;;;;;;12.79;62.51;98737.97;4860214;29;20033;-82
2021/01/23 08:17:39;;;;;;;9.75;6.55;;;;;;;12.79;62.51;98743.34;4857659;29;20033;-80
2021/01/23 08:20:07;;;;;;;10.15;6.50;;;;;;;12.82;62.82;98735.50;4860766;29;20112;-81
2021/01/23 08:22:33;;;;;;;8.23;5.27;;;;;;;12.82;62.97;98737.41;4860581;29;20514;-86
2021/01/23 08:24:58;;;;;;;7.13;4.10;;;;;;;12.83;63.65;98739.00;4859911;29;20287;-86
2021/01/23 08:27:24;;;;;;;5.70;4.35;;;;;;;12.82;63.26;98737.41;4856874;29;20486;-86
2021/01/23 08:29:51;;;;;;;5.95;4.07;;;;;;;12.85;63.82;98744.06;4851278;29;20482;-86
2021/01/23 08:32:17;;;;;;;7.72;4.43;;;;;;;12.86;64.00;98738.38;4850597;29;20034;-83
2021/01/23 08:34:44;;;;;;;8.18;3.90;;;;;;;12.86;64.02;98727.66;4871377;29;20497;-82
2021/01/23 08:37:10;;;;;;;5.88;4.30;;;;;;;12.86;64.57;98741.06;4857957;29;20075;-83
2021/01/23 08:39:48;;;;;;;6.93;4.32;;;;;;;12.88;64.38;98730.06;4858322;29;20048;-83
2021/01/23 08:42:15;;;;;;;7.63;4.57;;;;;;;12.89;64.69;98728.94;4871204;29;20025;-82
2021/01/23 08:44:40;;;;;;;4.03;3.60;;;;;;;12.89;64.71;98736.97;4858343;29;20084;-84
2021/01/23 08:47:06;;;;;;;7.03;3.95;;;;;;;12.90;63.79;98720.59;4857703;29;20479;-80
2021/01/23 08:49:32;;;;;;;8.63;3.80;;;;;;;12.92;63.96;98714.94;4857860;29;20029;-81
2021/01/23 08:51:58;;;;;;;6.18;4.03;;;;;;;12.90;63.84;98706.38;4856904;29;20093;-83
2021/01/23 08:54:24;;;;;;;3.22;2.72;;;;;;;12.95;63.74;98695.53;4858304;29;20037;-86
2021/01/23 08:56:50;;;;;;;4.43;3.30;;;;;;;12.95;62.97;98692.84;4848420;29;20089;-86
2021/01/23 08:59:15;;;;;;;2.70;2.50;;;;;;;12.94;62.99;98684.00;4858756;29;20447;-82
2021/01/23 09:01:41;;;;;;;6.72;2.90;;;;;;;12.98;62.84;98687.66;4858699;29;20029;-83
2021/01/23 09:04:07;;;;;;;3.17;2.70;;;;;;;12.97;62.91;98679.94;4857743;29;20103;-85
2021/01/23 09:06:33;;;;;;;3.13;2.83;;;;;;;13.00;62.86;98687.38;4856752;29;20479;-85
2021/01/23 09:08:59;;;;;;;2.67;2.20;;;;;;;12.98;62.74;98690.34;4857853;29;20129;-85
2021/01/23 09:11:24;;;;;;;4.78;2.47;;;;;;;13.02;62.67;98689.75;4858256;29;20092;-78
2021/01/23 09:13:50;;;;;;;5.30;2.45;;;;;;;13.02;62.56;98687.09;4853066;29;20395;-81
2021/01/23 09:16:16;;;;;;;7.03;3.92;;;;;;;13.04;62.28;98696.41;4858848;29;20474;-84
2021/01/23 09:18:41;;;;;;;3.10;2.33;;;;;;;13.09;61.94;98695.53;4858551;29;20040;-84
2021/01/23 09:21:07;;;;;;;4.35;2.80;;;;;;;13.09;62.08;98704.34;4859012;29;20033;-83
2021/01/23 09:23:32;;;;;;;4.00;3.40;;;;;;;13.11;61.47;98688.75;4859396;29;20037;-83
2021/01/23 09:26:02;;;;;;;5.57;3.13;;;;;;;13.16;60.89;98695.91;4859269;29;20025;-84
2021/01/23 09:28:28;;;;;;;6.75;2.95;;;;;;;13.20;61.27;98686.16;4860013;29;20036;-84
2021/01/23 09:30:53;;;;;;;3.65;2.58;;;;;;;13.22;60.94;98683.16;4859393;29;20132;-83
2021/01/23 09:33:19;;;;;;;5.93;3.13;;;;;;;13.24;60.85;98676.41;4859255;29;20112;-84
2021/01/23 09:35:44;;;;;;;4.95;4.00;;;;;;;13.27;59.82;98683.06;4860916;29;20128;-83
2021/01/23 09:38:10;;;;;;;5.03;3.63;;;;;;;13.27;59.78;98683.06;4862533;29;20429;-82
2021/01/23 09:40:35;;;;;;;3.15;2.85;;;;;;;13.32;59.66;98695.56;4861870;29;20057;-83
2021/01/23 09:43:00;;;;;;;4.63;3.15;;;;;;;13.33;59.37;98679.16;4862604;29;20534;-84
2021/01/23 09:45:26;;;;;;;5.70;3.63;;;;;;;13.35;59.40;98689.59;4861580;29;20497;-84
2021/01/23 09:47:51;;;;;;;5.32;2.88;;;;;;;13.38;59.02;98697.09;4862429;29;20025;-84
2021/01/23 09:50:21;;;;;;;5.03;2.70;;;;;;;13.42;59.46;98696.16;4862436;29;20123;-83
2021/01/23 09:52:47;;;;;;;4.68;3.05;;;;;;;13.44;59.18;98685.13;4861465;29;20197;-84
2021/01/23 09:55:13;;;;;;;6.13;2.65;;;;;;;13.47;59.44;98675.66;4857803;29;20494;-84
2021/01/23 09:57:39;;;;;;;4.05;2.97;;;;;;;13.50;59.19;98670.47;4862511;29;20061;-84
2021/01/23 10:00:06;;;;;;;8.88;3.97;;;;;;;13.52;59.42;98670.16;4861697;29;20029;-84
2021/01/23 10:02:34;;;;;;;5.07;3.30;;;;;;;13.52;60.07;98660.22;4861687;29;20025;-83
2021/01/23 10:05:00;;;;;;;3.65;2.00;;;;;;;13.51;60.38;98657.84;4861811;29;20032;-83
2021/01/23 10:07:26;;;;;;;4.55;2.45;;;;;;;13.52;60.44;98656.75;4862415;29;20119;-83
2021/01/23 10:09:51;;;;;;;6.40;2.58;;;;;;;13.51;60.80;98664.00;4861303;29;20128;-84
2021/01/23 10:12:16;;;;;;;4.00;3.33;;;;;;;13.52;60.64;98646.78;4862249;29;20561;-83
2021/01/23 10:14:42;;;;;;;4.07;2.40;;;;;;;13.53;60.94;98648.38;4862070;29;20378;-83
2021/01/23 10:17:08;;;;;;;4.32;2.55;;;;;;;13.53;59.96;98651.06;4858988;29;20560;-83
2021/01/23 10:19:34;;;;;;;8.20;3.13;;;;;;;13.51;59.91;98650.59;4861460;29;20120;-84
2021/01/23 10:22:01;;;;;;;4.85;2.25;;;;;;;13.52;59.69;98640.63;4860029;29;20065;-82
2021/01/23 10:24:28;;;;;;;5.40;2.78;;;;;;;13.48;59.19;98618.94;4861707;29;20044;-85
2021/01/23 10:26:53;;;;;;;6.03;2.90;;;;;;;13.47;59.12;98628.09;4862166;29;20033;-84
2021/01/23 10:29:22;;;;;;;13.27;7.15;;;;;;;13.44;58.45;98621.44;4861914;29;20124;-82
2021/01/23 10:31:48;;;;;;;9.05;2.70;;;;;;;13.42;57.74;98629.00;4878233;29;20505;-84
2021/01/23 10:34:13;;;;;;;6.63;3.13;;;;;;;13.41;57.83;98629.31;4878061;29;20040;-84
2021/01/23 10:36:39;;;;;;;5.80;3.22;;;;;;;13.37;57.46;98617.59;4860661;29;20446;-84
2021/01/23 10:39:05;;;;;;;6.18;3.70;;;;;;;13.37;57.17;98609.53;4859752;29;20037;-83
2021/01/23 10:41:31;;;;;;;7.18;4.68;;;;;;;13.36;57.01;98616.00;4860958;29;20033;-84
2021/01/23 10:43:56;;;;;;;5.20;3.08;;;;;;;13.34;56.62;98610.94;4861322;29;20036;-84
2021/01/23 10:46:22;;;;;;;5.85;3.13;;;;;;;13.34;56.46;98596.69;4861326;29;20530;-84
2021/01/23 10:48:47;;;;;;;8.15;3.97;;;;;;;13.32;56.31;98598.88;4859790;29;20032;-84
2021/01/23 10:51:14;;;;;;;9.07;3.63;;;;;;;13.32;55.86;98590.81;4861163;29;20036;-83
2021/01/23 10:53:39;;;;;;;8.77;4.43;;;;;;;13.34;56.20;98588.63;4861338;29;20029;-84
2021/01/23 10:56:05;;;;;;;6.13;3.25;;;;;;;13.33;55.63;98582.47;4860001;29;20029;-83
2021/01/23 10:58:30;;;;;;;7.93;3.00;;;;;;;13.32;54.61;98583.56;4860743;29;20119;-83
2021/01/23 11:00:56;;;;;;;6.00;3.55;;;;;;;13.32;54.94;98574.72;4860639;29;20025;-83
2021/01/23 11:03:22;;;;;;;8.98;3.97;;;;;;;13.31;54.27;98573.16;4859968;29;20032;-84
2021/01/23 11:05:48;;;;;;;10.30;4.50;;;;;;;13.31;54.72;98570.47;4861677;29;20033;-84
2021/01/23 11:08:13;;;;;;;6.55;4.20;;;;;;;13.32;54.29;98567.47;4861253;29;20036;-84
2021/01/23 11:10:39;;;;;;;12.43;4.93;;;;;;;13.33;54.47;98569.06;4861393;29;20119;-83
2021/01/23 11:13:04;;;;;;;12.52;5.50;;;;;;;13.33;55.07;98561.00;4860050;29;20025;-84
2021/01/23 11:15:30;;;;;;;8.38;4.30;;;;;;;13.35;54.51;98555.31;4859869;29;20027;-83
2021/01/23 11:17:55;;;;;;;9.63;4.65;;;;;;;13.36;54.27;98557.69;4860339;29;20466;-83
2021/01/23 11:20:21;;;;;;;10.48;4.25;;;;;;;13.37;53.66;98553.91;4855571;29;20737;-82
2021/01/23 11:22:47;;;;;;;9.85;3.40;;;;;;;13.39;53.43;98550.94;4841407;29;20056;-84
2021/01/23 11:25:13;;;;;;;4.25;3.15;;;;;;;13.37;53.63;98559.28;4841017;29;20025;-84
2021/01/23 11:27:39;;;;;;;6.18;3.25;;;;;;;13.38;53.42;98554.75;4842312;29;20402;-84
2021/01/23 11:30:07;;;;;;;9.80;4.57;;;;;;;13.41;53.46;98551.44;4841034;29;20025;-84
2021/01/23 11:32:32;;;;;;;9.63;3.80;;;;;;;13.38;53.49;98546.69;4842313;29;20029;-84
2021/01/23 11:34:58;;;;;;;11.35;4.85;;;;;;;13.38;53.35;98546.69;4842111;29;20303;-83
2021/01/23 11:37:24;;;;;;;12.25;5.20;;;;;;;13.36;52.97;98536.19;4841844;29;20471;-84